Hay Lakes, Canada
Current Conditions -  °F | °C
As of 2:00 PM on Tuesday 21 Oct 2014 (Local Time) from CYEG Reporting Station
Broken Clouds Broken Clouds  
Wind Chill: 55°   Ceiling: 22000
Heat Index: 55°   Visibility: 15mi
Dew Point: 39°   Wind: 2mph
Humidity: 54%   Direction: NA
Pressure: 29.63"   Gusts: NA
Location:  53.2°N, 113.05°W
Report Text: CYEG 212000Z VRB02KT 15SM FEW075 BKN220 13/04 A2963 RMK AC1CI7 AC TR SLP045 DENSITY ALT 3000FT
Loading
Personal Weather Stations






























Interactive Weather Map
Tropical Storm Tracking
New forecast layout! Learn more

10-Day Weather Forecast

Advertisements
Track Severe Weather on mobile